createdAt,value
2018-11-29T00:00:46.474Z,11.1
2018-11-29T00:01:47.843Z,11.1
2018-11-29T00:02:49.118Z,10.9
2018-11-29T00:03:50.374Z,10.8
2018-11-29T00:04:51.669Z,10.6
2018-11-29T00:05:52.932Z,10.5
2018-11-29T00:06:54.270Z,10.4
2018-11-29T00:07:58.316Z,10.4
2018-11-29T00:09:00.637Z,10.6
2018-11-29T00:10:01.916Z,10.9
2018-11-29T00:11:03.209Z,10.9
2018-11-29T00:12:04.751Z,10.8
2018-11-29T00:13:06.049Z,10.9
2018-11-29T00:14:07.337Z,10.8
2018-11-29T00:15:13.192Z,10.3
2018-11-29T00:16:14.471Z,10.3
2018-11-29T00:17:15.793Z,10.6
2018-11-29T00:18:17.078Z,10.6
2018-11-29T00:19:22.292Z,10.4
2018-11-29T00:20:25.743Z,10.3
2018-11-29T00:21:29.664Z,10.3
2018-11-29T00:22:31.008Z,10.3
2018-11-29T00:23:32.299Z,10.1
2018-11-29T00:24:43.704Z,10
2018-11-29T00:25:45.112Z,10.1
2018-11-29T00:26:46.407Z,10.1
2018-11-29T00:27:47.732Z,10.2
2018-11-29T00:28:49.019Z,10.2
2018-11-29T00:29:50.326Z,10
2018-11-29T00:30:51.629Z,10.2
2018-11-29T00:31:57.497Z,10.3
2018-11-29T00:32:58.871Z,10.2
2018-11-29T00:34:00.172Z,10.3
2018-11-29T00:35:07.483Z,10.2
2018-11-29T00:36:08.766Z,10.2
2018-11-29T00:37:10.020Z,10.3
2018-11-29T00:38:11.591Z,10.5
2018-11-29T00:39:12.890Z,10.3
2018-11-29T00:40:14.162Z,10.2
2018-11-29T00:41:15.420Z,10.3
2018-11-29T00:42:16.728Z,10.2
2018-11-29T00:43:18.040Z,10.3
2018-11-29T00:44:19.540Z,10.5
2018-11-29T00:45:23.249Z,10.4
2018-11-29T00:46:27.301Z,10.3
2018-11-29T00:47:28.587Z,10.3
2018-11-29T00:48:29.901Z,10.3
2018-11-29T00:49:31.186Z,10
2018-11-29T00:50:32.463Z,10.4
2018-11-29T00:51:33.752Z,10.6
2018-11-29T00:52:35.056Z,10.4
2018-11-29T00:53:36.392Z,10.3
2018-11-29T00:54:37.907Z,10.5
2018-11-29T00:55:39.189Z,10.6
2018-11-29T00:56:43.218Z,10.6
2018-11-29T00:57:44.512Z,10.4
2018-11-29T00:58:45.815Z,10.5
2018-11-29T00:59:49.585Z,10.3
2018-11-29T01:00:51.126Z,10.3
2018-11-29T01:01:52.451Z,10.4
2018-11-29T01:02:53.735Z,10.6
2018-11-29T01:03:55.143Z,10.3
2018-11-29T01:04:56.619Z,10.1
2018-11-29T01:06:01.307Z,10.3
2018-11-29T01:07:02.634Z,10.5
2018-11-29T01:08:04.325Z,10.4
2018-11-29T01:09:05.703Z,10.2
2018-11-29T01:10:08.346Z,9.9
2018-11-29T01:11:09.659Z,10.1
2018-11-29T01:12:10.942Z,9.8
2018-11-29T01:13:12.288Z,10
2018-11-29T01:14:13.622Z,10.1
2018-11-29T01:15:14.900Z,10.1
2018-11-29T01:16:16.172Z,10
2018-11-29T01:17:17.456Z,9.9
2018-11-29T01:18:18.718Z,9.7
2018-11-29T01:19:20.670Z,9.7
2018-11-29T01:20:22.032Z,9.9
2018-11-29T01:21:23.324Z,10
2018-11-29T01:22:24.584Z,10
2018-11-29T01:23:27.334Z,9.9
2018-11-29T01:24:28.920Z,9.9
2018-11-29T01:25:30.209Z,10.1
2018-11-29T01:26:34.249Z,10.1
2018-11-29T01:27:36.950Z,10.1
2018-11-29T01:28:38.214Z,10
2018-11-29T01:29:39.530Z,10.2
2018-11-29T01:30:40.771Z,9.9
2018-11-29T01:31:42.061Z,9.8
2018-11-29T01:32:43.336Z,9.9
2018-11-29T01:33:44.600Z,9.9
2018-11-29T01:34:45.936Z,10
2018-11-29T01:35:47.221Z,10.1
2018-11-29T01:36:48.530Z,10.1
2018-11-29T01:37:49.820Z,10
2018-11-29T01:38:51.116Z,9.7
2018-11-29T01:39:52.448Z,9.6
2018-11-29T01:40:53.762Z,9.8
2018-11-29T01:41:55.032Z,9.9
2018-11-29T01:42:56.564Z,10
2018-11-29T01:43:57.825Z,10.1
2018-11-29T01:44:59.142Z,10.1
2018-11-29T01:46:00.423Z,10.1
2018-11-29T01:47:01.719Z,10.1
2018-11-29T01:48:03.002Z,10.4
2018-11-29T01:49:04.267Z,10.2
2018-11-29T01:50:05.606Z,10.1
2018-11-29T01:51:06.917Z,10
2018-11-29T01:52:08.192Z,10
2018-11-29T01:53:09.491Z,10.1
2018-11-29T01:54:10.770Z,10.1
2018-11-29T01:55:12.097Z,9.8
2018-11-29T01:56:13.361Z,9.9
2018-11-29T01:57:14.660Z,9.9
2018-11-29T01:58:15.963Z,9.9
2018-11-29T01:59:17.247Z,10.1
2018-11-29T02:00:18.573Z,10.2
2018-11-29T02:01:19.853Z,10.2
2018-11-29T02:02:21.142Z,10.4
2018-11-29T02:03:22.439Z,10.3
2018-11-29T02:04:23.720Z,10.1
2018-11-29T02:05:25.049Z,10.2
2018-11-29T02:06:26.597Z,10.3
2018-11-29T02:07:28.160Z,10.3
2018-11-29T02:08:29.450Z,10
2018-11-29T02:09:30.763Z,10.1
2018-11-29T02:10:32.097Z,10
2018-11-29T02:11:33.414Z,9.9
2018-11-29T02:12:34.700Z,10
2018-11-29T02:13:36.026Z,9.8
2018-11-29T02:14:37.401Z,9.9
2018-11-29T02:15:38.789Z,10
2018-11-29T02:16:40.294Z,10.1
2018-11-29T02:17:41.634Z,10.1
2018-11-29T02:18:42.937Z,10.1
2018-11-29T02:19:44.256Z,10.1
2018-11-29T02:20:45.642Z,10
2018-11-29T02:21:46.953Z,9.9
2018-11-29T02:22:48.237Z,9.8
2018-11-29T02:23:49.553Z,9.9
2018-11-29T02:24:50.815Z,9.9
2018-11-29T02:25:52.207Z,10
2018-11-29T02:26:53.547Z,10.2
2018-11-29T02:27:55.239Z,10
2018-11-29T02:28:56.770Z,10.1
2018-11-29T02:29:58.597Z,10
2018-11-29T02:30:59.941Z,9.6
2018-11-29T02:32:01.224Z,9.4
2018-11-29T02:33:02.797Z,9.3
2018-11-29T02:34:04.195Z,9.3
2018-11-29T02:35:05.577Z,9.5
2018-11-29T02:36:06.927Z,9.6
2018-11-29T02:37:08.261Z,9.4
2018-11-29T02:38:09.581Z,9.2
2018-11-29T02:39:11.227Z,9.1
2018-11-29T02:40:12.540Z,9.1
2018-11-29T02:41:13.938Z,9.1
2018-11-29T02:42:15.265Z,9.2
2018-11-29T02:43:16.903Z,9
2018-11-29T02:44:18.261Z,9
2018-11-29T02:45:19.613Z,9.1
2018-11-29T02:46:20.964Z,9.2
2018-11-29T02:47:22.259Z,9.2
2018-11-29T02:48:23.561Z,9.4
2018-11-29T02:49:24.856Z,9.4
2018-11-29T02:50:29.398Z,9.5
2018-11-29T02:51:30.869Z,9.5
2018-11-29T02:52:34.413Z,9.4
2018-11-29T02:53:35.739Z,9.3
2018-11-29T02:54:37.032Z,9.6
2018-11-29T02:55:38.356Z,9.6
2018-11-29T02:56:41.954Z,9.6
2018-11-29T02:57:43.305Z,9.5
2018-11-29T02:58:44.709Z,9.4
2018-11-29T02:59:51.667Z,9.5
2018-11-29T03:00:52.954Z,9.5
2018-11-29T03:01:54.291Z,9.5
2018-11-29T03:02:55.598Z,9.1
2018-11-29T03:03:56.970Z,9.1
2018-11-29T03:04:58.398Z,9.3
2018-11-29T03:05:59.957Z,9.5
2018-11-29T03:07:01.325Z,9.5
2018-11-29T03:08:02.660Z,9.7
2018-11-29T03:09:04.169Z,9.7
2018-11-29T03:10:05.465Z,9.7
2018-11-29T03:11:06.798Z,9.9
2018-11-29T03:12:08.160Z,9.9
2018-11-29T03:13:09.475Z,9.9
2018-11-29T03:14:10.990Z,9.8
2018-11-29T03:15:12.305Z,9.8
2018-11-29T03:16:21.677Z,9.8
2018-11-29T03:17:25.617Z,9.7
2018-11-29T03:18:26.922Z,9.8
2018-11-29T03:19:30.710Z,9.9
2018-11-29T03:20:32.321Z,9.9
2018-11-29T03:21:33.687Z,9.9
2018-11-29T03:22:35.030Z,9.8
2018-11-29T03:23:36.391Z,9.5
2018-11-29T03:24:37.715Z,9.4
2018-11-29T03:25:38.993Z,9.4
2018-11-29T03:26:40.372Z,9.5
2018-11-29T03:27:41.875Z,9.6
2018-11-29T03:28:43.357Z,9.7
2018-11-29T03:29:44.708Z,9.6
2018-11-29T03:30:46.109Z,9.5
2018-11-29T03:31:47.547Z,9.2
2018-11-29T03:32:48.918Z,9.4
2018-11-29T03:33:50.237Z,9.4
2018-11-29T03:34:51.621Z,9.3
2018-11-29T03:35:52.888Z,9.4
2018-11-29T03:36:54.161Z,9.4
2018-11-29T03:37:55.466Z,9.7
2018-11-29T03:38:58.975Z,9.5
2018-11-29T03:40:00.236Z,9.5
2018-11-29T03:41:01.524Z,9.3
2018-11-29T03:42:02.804Z,9.1
2018-11-29T03:43:04.148Z,9
2018-11-29T03:44:05.412Z,9.1
2018-11-29T03:45:06.701Z,9.3
2018-11-29T03:46:08.005Z,9.5
2018-11-29T03:47:09.279Z,9.5
2018-11-29T03:48:11.855Z,9.5
2018-11-29T03:49:13.144Z,9.4
2018-11-29T03:50:14.651Z,9.3
2018-11-29T03:51:15.952Z,9.3
2018-11-29T03:52:17.256Z,9.4
2018-11-29T03:53:18.576Z,9.5
2018-11-29T03:54:19.868Z,9.7
2018-11-29T03:55:21.136Z,9.7
2018-11-29T03:56:22.421Z,9.6
2018-11-29T03:57:23.690Z,9.5
2018-11-29T03:58:25.152Z,9.5
2018-11-29T03:59:29.209Z,9.4
2018-11-29T04:00:30.500Z,9.4
2018-11-29T04:01:31.773Z,9.2
2018-11-29T04:02:33.058Z,8.9
2018-11-29T04:03:34.433Z,9
2018-11-29T04:04:35.705Z,8.8
2018-11-29T04:05:36.972Z,8.8
2018-11-29T04:06:38.302Z,8.8
2018-11-29T04:07:39.589Z,8.9
2018-11-29T04:08:40.919Z,8.9
2018-11-29T04:09:42.233Z,9
2018-11-29T04:10:43.482Z,9.1
2018-11-29T04:11:44.755Z,8.9
2018-11-29T04:12:46.220Z,8.8
2018-11-29T04:13:47.556Z,8.6
2018-11-29T04:14:48.820Z,8.6
2018-11-29T04:15:50.085Z,8.6
2018-11-29T04:16:51.368Z,8.6
2018-11-29T04:17:52.652Z,8.8
2018-11-29T04:18:53.986Z,8.8
2018-11-29T04:19:55.283Z,8.7
2018-11-29T04:20:59.602Z,8.7
2018-11-29T04:22:00.882Z,8.7
2018-11-29T04:23:02.152Z,8.7
2018-11-29T04:24:03.440Z,8.9
2018-11-29T04:25:04.747Z,9.1
2018-11-29T04:26:06.032Z,9.1
2018-11-29T04:27:07.311Z,9.4
2018-11-29T04:28:08.654Z,9.4
2018-11-29T04:29:09.975Z,9.5
2018-11-29T04:30:11.295Z,9.4
2018-11-29T04:31:12.596Z,9.5
2018-11-29T04:32:13.870Z,9.4
2018-11-29T04:33:15.129Z,9.2
2018-11-29T04:34:16.660Z,9.1
2018-11-29T04:35:17.948Z,9.4
2018-11-29T04:36:19.252Z,9.5
2018-11-29T04:37:20.531Z,9.4
2018-11-29T04:38:21.808Z,9.3
2018-11-29T04:39:23.119Z,9
2018-11-29T04:40:24.413Z,9.4
2018-11-29T04:41:25.718Z,9.4
2018-11-29T04:42:30.021Z,9.4
2018-11-29T04:43:34.221Z,9.3
2018-11-29T04:44:35.528Z,9.2
2018-11-29T04:45:36.855Z,9.1
2018-11-29T04:46:38.129Z,9.2
2018-11-29T04:47:39.380Z,9.2
2018-11-29T04:48:40.763Z,9.2
2018-11-29T04:49:42.147Z,9.3
2018-11-29T04:50:43.460Z,9.3
2018-11-29T04:51:44.739Z,9.3
2018-11-29T04:52:48.880Z,9
2018-11-29T04:53:50.179Z,9.2
2018-11-29T04:54:51.500Z,9
2018-11-29T04:55:52.813Z,9.3
2018-11-29T04:56:54.125Z,9.1
2018-11-29T04:57:55.486Z,9
2018-11-29T04:58:56.826Z,8.9
2018-11-29T04:59:58.141Z,8.8
2018-11-29T05:00:59.438Z,8.9
2018-11-29T05:02:02.836Z,9
2018-11-29T05:03:06.914Z,8.9
2018-11-29T05:04:08.534Z,8.8
2018-11-29T05:05:10.191Z,8.8
2018-11-29T05:06:11.457Z,8.9
2018-11-29T05:07:12.715Z,9
2018-11-29T05:08:14.013Z,9.1
2018-11-29T05:09:15.275Z,9.1
2018-11-29T05:10:16.792Z,9.2
2018-11-29T05:11:18.340Z,9.2
2018-11-29T05:12:19.606Z,9.6
2018-11-29T05:13:20.926Z,10.1
2018-11-29T05:14:22.368Z,10.6
2018-11-29T05:15:23.805Z,10.8
2018-11-29T05:16:25.101Z,11.3
2018-11-29T05:17:26.677Z,11.7
2018-11-29T05:18:28.156Z,12
2018-11-29T05:19:29.475Z,12.3
2018-11-29T05:20:32.116Z,12.5
2018-11-29T05:21:35.402Z,12.6
2018-11-29T05:22:36.736Z,12.7
2018-11-29T05:23:38.072Z,12.6
2018-11-29T05:24:39.463Z,12.9
2018-11-29T05:25:40.823Z,12.9
2018-11-29T05:26:42.181Z,12.8
2018-11-29T05:27:43.532Z,13
2018-11-29T05:28:44.839Z,13.1
2018-11-29T05:29:46.135Z,13.1
2018-11-29T05:30:53.326Z,13.1
2018-11-29T05:31:59.780Z,13.2
2018-11-29T05:33:11.073Z,13.3
2018-11-29T05:34:19.232Z,13.4
2018-11-29T05:35:24.318Z,13.3
2018-11-29T05:36:28.181Z,13.4
2018-11-29T05:37:29.456Z,13.4
2018-11-29T05:38:30.824Z,13.4
2018-11-29T05:39:32.138Z,13.3
2018-11-29T05:40:34.709Z,13.2
2018-11-29T05:41:36.093Z,13.4
2018-11-29T05:42:37.388Z,13.3
2018-11-29T05:43:38.744Z,13.6
2018-11-29T05:44:40.069Z,13.8
2018-11-29T05:45:41.618Z,13.6
2018-11-29T05:46:43.001Z,13.5
2018-11-29T05:47:46.364Z,13.6
2018-11-29T05:48:47.667Z,13.9
2018-11-29T05:49:49.158Z,14.3
2018-11-29T05:50:53.245Z,14.3
2018-11-29T05:51:54.593Z,14.1
2018-11-29T05:52:57.035Z,13.9
2018-11-29T05:53:58.312Z,13.8
2018-11-29T05:54:59.609Z,13.8
2018-11-29T05:56:01.329Z,13.9
2018-11-29T05:57:02.945Z,14.1
2018-11-29T05:58:04.290Z,14.3
2018-11-29T05:59:05.678Z,14.1
2018-11-29T06:00:06.973Z,14.1
2018-11-29T06:01:08.272Z,14.2
2018-11-29T06:02:09.817Z,14.2
2018-11-29T06:03:13.362Z,14.4
2018-11-29T06:04:17.291Z,14.4
2018-11-29T06:05:20.063Z,14.3
2018-11-29T06:06:21.384Z,14.3
2018-11-29T06:07:22.738Z,14.2
2018-11-29T06:08:24.344Z,14.4
2018-11-29T06:09:25.690Z,14.3
2018-11-29T06:10:27.018Z,14.3
2018-11-29T06:11:28.570Z,14.1
2018-11-29T06:12:29.932Z,14.2
2018-11-29T06:13:31.311Z,14.3
2018-11-29T06:14:32.580Z,14.3
2018-11-29T06:15:33.908Z,14.4
2018-11-29T06:16:35.232Z,14.5
2018-11-29T06:17:38.693Z,14.4
2018-11-29T06:18:52.447Z,14.3
2018-11-29T06:19:53.775Z,14.5
2018-11-29T06:20:55.572Z,14.7
2018-11-29T06:21:56.888Z,14.5
2018-11-29T06:22:58.312Z,14.6
2018-11-29T06:23:59.665Z,14.7
2018-11-29T06:25:01.214Z,14.7
2018-11-29T06:26:03.866Z,14.6
2018-11-29T06:27:05.178Z,14.7
2018-11-29T06:28:06.931Z,14.7
2018-11-29T06:29:09.687Z,14.9
2018-11-29T06:30:11.026Z,14.7
2018-11-29T06:31:12.365Z,14.9
2018-11-29T06:32:13.740Z,14.9
2018-11-29T06:33:17.608Z,15
2018-11-29T06:34:24.704Z,15
2018-11-29T06:35:28.413Z,15
2018-11-29T06:36:32.652Z,14.9
2018-11-29T06:37:34.027Z,15
2018-11-29T06:38:35.396Z,15.1
2018-11-29T06:39:36.904Z,15.1
2018-11-29T06:40:38.282Z,15
2018-11-29T06:41:39.770Z,15
2018-11-29T06:42:41.092Z,15
2018-11-29T06:43:43.668Z,15.1
2018-11-29T06:44:44.993Z,15.1
2018-11-29T06:45:48.746Z,15.1
2018-11-29T06:46:52.911Z,15.4
2018-11-29T06:47:54.280Z,15.3
2018-11-29T06:49:01.736Z,15.2
2018-11-29T06:50:03.073Z,15.3
2018-11-29T06:51:04.384Z,15.2
2018-11-29T06:52:06.249Z,15.1
2018-11-29T06:53:10.761Z,15.3
2018-11-29T06:54:12.373Z,15.2
2018-11-29T06:55:19.346Z,15.2
2018-11-29T06:56:23.309Z,15.2
2018-11-29T06:57:25.030Z,15.1
2018-11-29T06:58:26.430Z,15.1
2018-11-29T06:59:31.337Z,15.2
2018-11-29T07:00:32.733Z,15.2
2018-11-29T07:01:34.100Z,15.3
2018-11-29T07:02:35.435Z,15.5
2018-11-29T07:03:38.544Z,15.4
2018-11-29T07:04:42.220Z,15.4
2018-11-29T07:05:43.729Z,15.3
2018-11-29T07:06:46.546Z,15.1
2018-11-29T07:07:53.219Z,15.3
2018-11-29T07:08:57.296Z,15.4
2018-11-29T07:10:01.459Z,15.3
2018-11-29T07:11:06.148Z,15.4
2018-11-29T07:12:07.992Z,15.4
2018-11-29T07:13:09.322Z,15.4
2018-11-29T07:14:10.662Z,15.5
2018-11-29T07:15:11.993Z,15.4
2018-11-29T07:16:13.270Z,15.4
2018-11-29T07:17:14.608Z,15.4
2018-11-29T07:18:15.902Z,15.5
2018-11-29T07:19:17.225Z,15.6
2018-11-29T07:20:18.559Z,15.5
2018-11-29T07:21:19.832Z,15.5
2018-11-29T07:22:21.187Z,15.4
2018-11-29T07:23:22.536Z,15.4
2018-11-29T07:24:24.083Z,15.4
2018-11-29T07:25:26.474Z,15.5
2018-11-29T07:26:30.346Z,15.5
2018-11-29T07:27:33.756Z,15.4
2018-11-29T07:28:35.556Z,15.5
2018-11-29T07:29:37.051Z,15.5
2018-11-29T07:30:41.519Z,15.6
2018-11-29T07:31:42.900Z,15.6
2018-11-29T07:32:44.224Z,15.7
2018-11-29T07:33:45.899Z,15.6
2018-11-29T07:34:50.996Z,15.6
2018-11-29T07:35:52.497Z,15.5
2018-11-29T07:36:53.897Z,15.6
2018-11-29T07:38:01.842Z,15.7
2018-11-29T07:39:03.354Z,15.8
2018-11-29T07:40:04.700Z,15.9
2018-11-29T07:41:06.347Z,15.8
2018-11-29T07:42:08.120Z,16
2018-11-29T07:43:09.840Z,15.9
2018-11-29T07:44:13.779Z,16
2018-11-29T07:45:18.245Z,15.9
2018-11-29T07:46:19.949Z,16.1
2018-11-29T07:47:21.300Z,16.1
2018-11-29T07:48:22.713Z,16.1
2018-11-29T07:49:25.155Z,16.1
2018-11-29T07:50:29.874Z,16
2018-11-29T07:51:31.334Z,15.9
2018-11-29T07:52:32.909Z,15.9
2018-11-29T07:53:34.369Z,15.8
2018-11-29T07:54:37.789Z,15.8
2018-11-29T07:55:41.347Z,15.8
2018-11-29T07:56:43.485Z,15.7
2018-11-29T07:57:48.082Z,15.7
2018-11-29T07:58:54.012Z,15.8
2018-11-29T07:59:55.372Z,16
2018-11-29T08:00:57.157Z,15.9
2018-11-29T08:01:59.324Z,16
2018-11-29T08:03:00.653Z,16.1
2018-11-29T08:04:02.057Z,15.9
2018-11-29T08:05:03.379Z,15.9
2018-11-29T08:06:07.424Z,16
2018-11-29T08:07:08.871Z,16.1
2018-11-29T08:08:10.380Z,16.1
2018-11-29T08:09:11.756Z,16.1
2018-11-29T08:10:16.075Z,16.3
2018-11-29T08:11:17.416Z,16.2
2018-11-29T08:12:19.239Z,16.1
2018-11-29T08:13:20.874Z,16.1
2018-11-29T08:14:22.605Z,16.3
2018-11-29T08:15:23.941Z,16.2
2018-11-29T08:16:25.292Z,16.2
2018-11-29T08:17:26.668Z,16.3
2018-11-29T08:18:28.035Z,16.5
2018-11-29T08:19:29.407Z,16.5
2018-11-29T08:20:30.894Z,16.5
2018-11-29T08:21:32.260Z,16.4
2018-11-29T08:22:34.150Z,16.6
2018-11-29T08:23:36.569Z,16.4
2018-11-29T08:24:40.391Z,16.5
2018-11-29T08:25:41.790Z,16.5
2018-11-29T08:26:43.129Z,16.6
2018-11-29T08:27:49.262Z,16.3
2018-11-29T08:28:54.960Z,16.2
2018-11-29T08:29:56.242Z,16.3
2018-11-29T08:31:04.966Z,16.4
2018-11-29T08:32:06.424Z,16.5
2018-11-29T08:33:07.866Z,16.4
2018-11-29T08:34:09.220Z,16.1
2018-11-29T08:35:13.025Z,16.4
2018-11-29T08:36:14.824Z,16.4
2018-11-29T08:37:18.900Z,16.3
2018-11-29T08:38:22.709Z,16.3
2018-11-29T08:39:34.685Z,16.3
2018-11-29T08:40:37.180Z,16.4
2018-11-29T08:41:38.882Z,16.3
2018-11-29T08:42:40.288Z,16.3
2018-11-29T08:43:43.221Z,16.3
2018-11-29T08:44:44.781Z,16.4
2018-11-29T08:45:49.546Z,16.3
2018-11-29T08:46:50.836Z,16.3
2018-11-29T08:47:52.204Z,16.2
2018-11-29T08:48:53.558Z,16.2
2018-11-29T08:49:54.883Z,16.3
2018-11-29T08:51:00.923Z,16.3
2018-11-29T08:52:03.718Z,16.1
2018-11-29T08:53:11.072Z,16.2
2018-11-29T08:54:12.431Z,16.3
2018-11-29T08:55:13.800Z,16.2
2018-11-29T08:56:15.322Z,16.1
2018-11-29T08:57:16.675Z,16
2018-11-29T08:58:17.983Z,16.2
2018-11-29T08:59:19.459Z,16.1
2018-11-29T09:00:24.188Z,16.2
2018-11-29T09:01:27.144Z,16.3
2018-11-29T09:02:28.499Z,16.3
2018-11-29T09:03:29.836Z,16.2
2018-11-29T09:04:31.412Z,16.2
2018-11-29T09:05:34.016Z,16.4
2018-11-29T09:06:35.957Z,16.5
2018-11-29T09:07:39.716Z,16.4
2018-11-29T09:08:43.683Z,16.4
2018-11-29T09:09:45.063Z,16.3
2018-11-29T09:10:46.409Z,16.4
2018-11-29T09:11:51.060Z,16.4
2018-11-29T09:12:55.135Z,16.6
2018-11-29T09:13:56.558Z,16.5
2018-11-29T09:14:59.129Z,16.5
2018-11-29T09:16:00.519Z,16.6
2018-11-29T09:17:01.848Z,16.7
2018-11-29T09:18:03.494Z,16.8
2018-11-29T09:19:07.321Z,16.6
2018-11-29T09:20:08.735Z,16.5
2018-11-29T09:21:10.367Z,16.6
2018-11-29T09:22:11.766Z,16.5
2018-11-29T09:23:14.307Z,16.7
2018-11-29T09:24:16.359Z,16.8
2018-11-29T09:25:21.515Z,17
2018-11-29T09:26:31.311Z,17.1
2018-11-29T09:27:32.740Z,17
2018-11-29T09:28:34.137Z,17
2018-11-29T09:29:35.818Z,17
2018-11-29T09:30:39.367Z,16.9
2018-11-29T09:31:52.779Z,17
2018-11-29T09:32:54.132Z,17
2018-11-29T09:33:56.156Z,17.2
2018-11-29T09:34:58.621Z,17.1
2018-11-29T09:36:00.107Z,17.2
2018-11-29T09:37:01.552Z,17.3
2018-11-29T09:38:03.272Z,17.2
2018-11-29T09:39:06.368Z,17.2
2018-11-29T09:40:09.713Z,17.1
2018-11-29T09:41:11.080Z,17.1
2018-11-29T09:42:12.429Z,17
2018-11-29T09:43:13.805Z,17.1
2018-11-29T09:44:15.668Z,17.1
2018-11-29T09:45:17.280Z,17.1
2018-11-29T09:46:21.608Z,17.1
2018-11-29T09:47:23.000Z,16.9
2018-11-29T09:48:31.388Z,17.1
2018-11-29T09:49:32.798Z,17
2018-11-29T09:50:34.412Z,17
2018-11-29T09:51:37.067Z,17
2018-11-29T09:52:38.457Z,17
2018-11-29T09:53:41.082Z,17
2018-11-29T09:54:42.445Z,17
2018-11-29T09:55:46.447Z,16.9
2018-11-29T09:56:48.037Z,16.8
2018-11-29T09:57:49.365Z,16.8
2018-11-29T09:58:50.788Z,16.8
2018-11-29T09:59:54.314Z,17
2018-11-29T10:00:55.650Z,16.9
2018-11-29T10:03:11.419Z,17.3
2018-11-29T10:04:12.822Z,17.3
2018-11-29T10:05:19.710Z,17.3
2018-11-29T10:06:21.345Z,17.2
2018-11-29T10:07:31.642Z,17.2
2018-11-29T10:08:33.231Z,17.1
2018-11-29T10:09:34.673Z,17.3
2018-11-29T10:10:37.285Z,17.2
2018-11-29T10:11:38.690Z,17.3
2018-11-29T10:12:51.894Z,17.4
2018-11-29T10:13:53.244Z,17.4
2018-11-29T10:14:55.810Z,17.4
2018-11-29T10:15:59.326Z,17.4
2018-11-29T10:17:11.651Z,17.5
2018-11-29T10:18:22.630Z,17.3
2018-11-29T10:19:25.630Z,17.4
2018-11-29T10:20:27.048Z,17.4
2018-11-29T10:21:30.526Z,17.5
2018-11-29T10:22:37.685Z,17.5
2018-11-29T10:23:39.832Z,17.6
2018-11-29T10:24:43.483Z,17.4
2018-11-29T10:25:45.014Z,17.3
2018-11-29T10:26:54.898Z,17.5
2018-11-29T10:28:02.212Z,17.5
2018-11-29T10:29:03.619Z,17.3
2018-11-29T10:30:06.289Z,17.4
2018-11-29T10:31:07.821Z,17.5
2018-11-29T10:32:10.454Z,17.6
2018-11-29T10:33:12.576Z,17.6
2018-11-29T10:34:14.856Z,17.6
2018-11-29T10:35:19.300Z,17.7
2018-11-29T10:36:20.781Z,17.7
2018-11-29T10:37:23.240Z,17.6
2018-11-29T10:38:27.733Z,17.7
2018-11-29T10:39:30.428Z,17.6
2018-11-29T10:40:34.401Z,17.6
2018-11-29T10:41:41.497Z,17.6
2018-11-29T10:42:42.872Z,17.6
2018-11-29T10:43:44.297Z,17.6
2018-11-29T10:44:45.701Z,17.5
2018-11-29T10:45:54.485Z,17.5
2018-11-29T10:46:56.035Z,17.6
2018-11-29T10:48:02.408Z,17.7
2018-11-29T10:49:04.094Z,17.6
2018-11-29T10:50:05.487Z,17.7
2018-11-29T10:51:13.937Z,17.7
2018-11-29T10:52:15.324Z,17.8
2018-11-29T10:53:16.675Z,17.8
2018-11-29T10:54:20.636Z,17.8
2018-11-29T10:55:22.080Z,17.8
2018-11-29T10:56:25.192Z,17.8
2018-11-29T10:57:29.566Z,17.7
2018-11-29T10:58:30.985Z,17.7
2018-11-29T10:59:32.568Z,17.8
2018-11-29T11:00:34.038Z,17.8
2018-11-29T11:01:35.653Z,17.8
2018-11-29T11:02:37.302Z,17.7
2018-11-29T11:03:38.841Z,17.6
2018-11-29T11:04:40.559Z,17.4
2018-11-29T11:05:43.262Z,17.7
2018-11-29T11:08:00.637Z,17.8
2018-11-29T11:09:08.732Z,17.8
2018-11-29T11:10:10.490Z,17.8
2018-11-29T11:11:15.188Z,17.7
2018-11-29T11:12:18.685Z,17.7
2018-11-29T11:13:20.359Z,17.6
2018-11-29T11:14:25.166Z,17.5
2018-11-29T11:15:30.700Z,17.8
2018-11-29T11:16:41.875Z,17.7
2018-11-29T11:17:45.727Z,17.7
2018-11-29T11:18:49.118Z,17.8
2018-11-29T11:19:50.828Z,18
2018-11-29T11:20:55.819Z,17.9
2018-11-29T11:21:57.936Z,17.9
2018-11-29T11:23:01.712Z,18
2018-11-29T11:24:08.177Z,17.9
2018-11-29T11:25:13.623Z,18
2018-11-29T11:26:24.261Z,18
2018-11-29T11:27:34.128Z,17.9
2018-11-29T11:28:36.719Z,18.1
2018-11-29T11:29:39.250Z,17.9
2018-11-29T11:30:40.748Z,18
2018-11-29T11:31:42.407Z,18
2018-11-29T11:32:44.086Z,18
2018-11-29T11:33:45.684Z,18.1
2018-11-29T11:34:47.137Z,18.1
2018-11-29T11:35:48.799Z,18
2018-11-29T11:36:50.592Z,18.2
2018-11-29T11:37:53.588Z,18.1
2018-11-29T11:38:56.426Z,18
2018-11-29T11:39:57.841Z,18
2018-11-29T11:41:02.186Z,18.1
2018-11-29T11:42:03.622Z,18
2018-11-29T11:43:05.488Z,18
2018-11-29T11:44:08.129Z,17.9
2018-11-29T11:45:09.616Z,18
2018-11-29T11:46:10.976Z,18
2018-11-29T11:47:12.419Z,17.9
2018-11-29T11:48:13.847Z,17.9
2018-11-29T11:49:15.149Z,17.8
2018-11-29T11:50:19.506Z,17.9
2018-11-29T11:51:20.772Z,17.9
2018-11-29T11:52:24.723Z,17.9
2018-11-29T11:53:28.212Z,18
2018-11-29T11:54:30.989Z,17.9
2018-11-29T11:55:32.315Z,18
2018-11-29T11:56:33.859Z,18
2018-11-29T11:57:35.165Z,17.8
2018-11-29T11:58:36.469Z,18
2018-11-29T11:59:37.758Z,18.1
2018-11-29T12:00:40.635Z,17.9
2018-11-29T12:01:41.916Z,18.1
2018-11-29T12:02:43.257Z,18
2018-11-29T12:03:45.097Z,17.9
2018-11-29T12:04:48.626Z,18
2018-11-29T12:05:57.287Z,17.9
2018-11-29T12:07:03.466Z,18
2018-11-29T12:08:04.747Z,18.1
2018-11-29T12:09:08.467Z,18
2018-11-29T12:10:12.227Z,17.9
2018-11-29T12:11:13.535Z,17.9
2018-11-29T12:12:21.444Z,17.8
2018-11-29T12:13:22.763Z,17.8
2018-11-29T12:14:25.954Z,17.9
2018-11-29T12:15:27.289Z,17.9
2018-11-29T12:16:28.574Z,18
2018-11-29T12:17:30.522Z,18
2018-11-29T12:18:33.909Z,17.9
2018-11-29T12:19:35.242Z,17.8
2018-11-29T12:20:36.540Z,17.8
2018-11-29T12:21:37.852Z,17.8
2018-11-29T12:22:41.291Z,17.7
2018-11-29T12:23:42.706Z,17.9
2018-11-29T12:24:44.039Z,17.9
2018-11-29T12:25:45.331Z,17.9
2018-11-29T12:26:46.632Z,18
2018-11-29T12:29:04.255Z,18
2018-11-29T12:30:08.346Z,17.9
2018-11-29T12:31:09.613Z,18.1
2018-11-29T12:32:10.894Z,18.1
2018-11-29T12:33:12.167Z,18.1
2018-11-29T12:34:13.838Z,18.3
2018-11-29T12:35:17.350Z,18.2
2018-11-29T12:36:21.944Z,18.1
2018-11-29T12:37:33.650Z,18
2018-11-29T12:38:37.265Z,17.9
2018-11-29T12:39:40.645Z,17.8
2018-11-29T12:40:50.974Z,17.7
2018-11-29T12:41:52.256Z,17.6
2018-11-29T12:42:58.745Z,17.6
2018-11-29T12:44:00.303Z,17.6
2018-11-29T12:45:04.619Z,17.5
2018-11-29T12:46:11.011Z,17.5
2018-11-29T12:47:12.598Z,17.5
2018-11-29T12:48:13.894Z,17.4
2018-11-29T12:49:19.294Z,17.5
2018-11-29T12:50:20.580Z,17.5
2018-11-29T12:51:22.195Z,17.5
2018-11-29T12:52:23.484Z,17.5
2018-11-29T12:53:24.945Z,17.4
2018-11-29T12:54:26.213Z,17.4
2018-11-29T12:55:27.519Z,17.3
2018-11-29T12:56:30.111Z,17.3
2018-11-29T12:57:33.352Z,17.3
2018-11-29T12:58:34.875Z,17.3
2018-11-29T12:59:37.801Z,17.3
2018-11-29T13:00:41.117Z,17.1
2018-11-29T13:01:42.432Z,17.2
2018-11-29T13:02:45.442Z,17.2
2018-11-29T13:03:46.770Z,17.2
2018-11-29T13:04:48.243Z,17.2
2018-11-29T13:05:49.623Z,17.2
2018-11-29T13:06:50.956Z,17.2
2018-11-29T13:07:52.224Z,17.1
2018-11-29T13:08:53.514Z,17.1
2018-11-29T13:09:54.820Z,17.1
2018-11-29T13:10:56.103Z,17.1
2018-11-29T13:11:57.409Z,17.1
2018-11-29T13:12:58.746Z,17.1
2018-11-29T13:14:02.443Z,17
2018-11-29T13:15:03.996Z,17
2018-11-29T13:16:07.556Z,17
2018-11-29T13:17:08.836Z,16.9
2018-11-29T13:18:18.401Z,17
2018-11-29T13:19:19.688Z,16.8
2018-11-29T13:20:20.992Z,17
2018-11-29T13:21:25.238Z,16.8
2018-11-29T13:22:26.592Z,16.9
2018-11-29T13:23:30.211Z,16.9
2018-11-29T13:24:34.472Z,16.8
2018-11-29T13:25:36.156Z,16.9
2018-11-29T13:26:37.395Z,16.9
2018-11-29T13:27:41.176Z,16.9
2018-11-29T13:28:42.760Z,16.9
2018-11-29T13:29:48.427Z,16.8
2018-11-29T13:30:52.304Z,16.7
2018-11-29T13:31:55.936Z,16.8
2018-11-29T13:32:57.302Z,16.8
2018-11-29T13:33:58.617Z,16.7
2018-11-29T13:34:59.951Z,16.7
2018-11-29T13:36:01.669Z,16.7
2018-11-29T13:37:03.671Z,16.6
2018-11-29T13:38:05.677Z,16.7
2018-11-29T13:39:13.351Z,16.7
2018-11-29T13:40:14.726Z,16.7
2018-11-29T13:41:16.011Z,16.7
2018-11-29T13:42:26.669Z,16.6
2018-11-29T13:43:30.422Z,16.7
2018-11-29T13:44:32.071Z,16.7
2018-11-29T13:45:33.344Z,16.6
2018-11-29T13:46:34.831Z,16.6
2018-11-29T13:47:36.126Z,16.7
2018-11-29T13:48:37.447Z,16.7
2018-11-29T13:49:39.221Z,16.6
2018-11-29T13:50:40.647Z,16.6
2018-11-29T13:51:42.054Z,16.6
2018-11-29T13:52:43.555Z,16.6
2018-11-29T13:53:49.271Z,16.6
2018-11-29T13:54:52.587Z,16.6
2018-11-29T13:55:55.773Z,16.6
2018-11-29T13:56:58.659Z,16.5
2018-11-29T13:58:01.647Z,16.5
2018-11-29T13:59:03.204Z,16.5
2018-11-29T14:00:07.549Z,16.4
2018-11-29T14:01:08.834Z,16.5
2018-11-29T14:02:12.575Z,16.4
2018-11-29T14:03:18.066Z,16.5
2018-11-29T14:04:19.560Z,16.4
2018-11-29T14:05:21.847Z,16.4
2018-11-29T14:06:33.116Z,16.4